Time;durP1;ratioP1;P1;durP2;ratioP2;P2;SDS_P1;SDS_P2;PMS_P1;PMS_P2;Temp;Humidity;BMP_temperature;BMP_pressure;BME280_temperature;BME280_humidity;BME280_pressure;Samples;Min_cycle;Max_cycle;Signal;HPM_P1;HPM_P2
2022/02/25 00:01:17;;;;;;;;;;;;;;;17.09;49.45;101538.97;4980907;28;19922;-76
2022/02/25 00:03:43;;;;;;;;;;;;;;;17.09;49.25;101544.16;5014526;28;19955;-76
2022/02/25 00:06:08;;;;;;;;;;;;;;;17.10;49.39;101538.97;4995004;28;19922;-74
2022/02/25 00:08:33;;;;;;;;;;;;;;;17.09;49.33;101541.56;4977504;28;19925;-76
2022/02/25 00:10:59;;;;;;;;;;;;;;;17.09;49.12;101544.16;4968110;28;19921;-76
2022/02/25 00:13:24;;;;;;;;;;;;;;;17.08;49.25;101535.50;4987328;28;20008;-75
2022/02/25 00:15:49;;;;;;;;;;;;;;;17.07;49.14;101541.53;4996952;28;19921;-75
2022/02/25 00:18:14;;;;;;;;;;;;;;;17.06;49.23;101535.47;4997284;28;19921;-74
2022/02/25 00:20:40;;;;;;;;;;;;;;;17.07;49.34;101538.94;5002063;28;19967;-75
2022/02/25 00:23:05;;;;;;;;;;;;;;;17.06;49.27;101545.88;4981660;28;19928;-74
2022/02/25 00:25:31;;;;;;;;;;;;;;;17.06;49.18;101548.47;4997343;28;19918;-74
2022/02/25 00:27:56;;;;;;;;;;;;;;;17.06;49.37;101550.22;4977569;28;20400;-76
2022/02/25 00:30:21;;;;;;;;;;;;;;;17.05;49.22;101549.38;4994208;28;19961;-75
2022/02/25 00:32:46;;;;;;;;;;;;;;;17.05;49.15;101549.38;5012236;28;19936;-76
2022/02/25 00:35:12;;;;;;;;;;;;;;;17.04;49.35;101555.41;4978012;28;19929;-75
2022/02/25 00:37:37;;;;;;;;;;;;;;;17.04;49.25;101539.81;4995156;28;19914;-74
2022/02/25 00:40:03;;;;;;;;;;;;;;;17.04;49.23;101555.41;4996533;28;19967;-76
2022/02/25 00:42:29;;;;;;;;;;;;;;;17.05;49.05;101544.16;4997234;28;19924;-75
2022/02/25 00:44:54;;;;;;;;;;;;;;;17.03;48.92;101558.88;5014372;28;19926;-74
2022/02/25 00:47:19;;;;;;;;;;;;;;;17.04;49.13;101546.75;4996773;28;19917;-75
2022/02/25 00:49:44;;;;;;;;;;;;;;;17.03;49.09;101552.81;5011064;28;20012;-75
2022/02/25 00:52:10;;;;;;;;;;;;;;;17.03;49.06;101547.63;5012726;28;19922;-75
2022/02/25 00:54:36;;;;;;;;;;;;;;;17.02;48.95;101546.72;4979341;28;20060;-74
2022/02/25 00:57:01;;;;;;;;;;;;;;;17.03;48.96;101551.09;4980273;28;19929;-76
2022/02/25 00:59:26;;;;;;;;;;;;;;;17.02;48.98;101544.13;4996616;28;19917;-75
2022/02/25 01:01:52;;;;;;;;;;;;;;;17.02;48.75;101556.28;4996623;28;19925;-76
2022/02/25 01:04:17;;;;;;;;;;;;;;;17.02;49.08;101553.66;4996469;28;20402;-76
2022/02/25 01:06:42;;;;;;;;;;;;;;;17.04;48.75;101559.75;5014143;28;20399;-76
2022/02/25 01:09:08;;;;;;;;;;;;;;;17.02;48.69;101557.13;4976774;28;19979;-75
2022/02/25 01:11:33;;;;;;;;;;;;;;;17.02;48.96;101556.28;4999435;28;19921;-74
2022/02/25 01:13:59;;;;;;;;;;;;;;;17.00;48.93;101561.44;4996497;28;19969;-75
2022/02/25 01:16:24;;;;;;;;;;;;;;;17.01;48.78;101555.41;5014381;28;19977;-76
2022/02/25 01:18:49;;;;;;;;;;;;;;;17.01;48.75;101554.53;5001687;28;20284;-75
2022/02/25 01:21:15;;;;;;;;;;;;;;;17.01;48.83;101560.63;4976171;28;20323;-74
2022/02/25 01:23:40;;;;;;;;;;;;;;;17.01;48.84;101555.41;4998082;28;20389;-75
2022/02/25 01:26:05;;;;;;;;;;;;;;;17.00;49.09;101560.59;4994347;28;19940;-76
2022/02/25 01:28:33;;;;;;;;;;;;;;;17.00;48.26;101569.25;4994351;28;19925;-76
2022/02/25 01:30:58;;;;;;;;;;;;;;;16.99;48.68;101567.53;5009522;28;20299;-76
2022/02/25 01:33:23;;;;;;;;;;;;;;;16.99;48.84;101564.06;4995731;28;19922;-76
2022/02/25 01:35:48;;;;;;;;;;;;;;;16.99;48.69;101574.47;5013765;28;19924;-75
2022/02/25 01:38:13;;;;;;;;;;;;;;;16.98;48.50;101570.97;4996289;28;19964;-74
2022/02/25 01:40:39;;;;;;;;;;;;;;;16.98;48.79;101567.50;4979456;28;19922;-75
2022/02/25 01:43:04;;;;;;;;;;;;;;;16.97;48.67;101569.25;4996242;28;19972;-74
2022/02/25 01:45:35;;;;;;;;;;;;;;;16.97;48.84;101566.66;4986275;28;19988;-75
2022/02/25 01:48:00;;;;;;;;;;;;;;;16.96;48.33;101566.63;4994258;28;20368;-74
2022/02/25 01:50:26;;;;;;;;;;;;;;;16.96;48.50;101564.03;4972665;28;19922;-75
2022/02/25 01:52:57;;;;;;;;;;;;;;;16.96;48.62;101575.34;4960708;28;20375;-75
2022/02/25 01:55:23;;;;;;;;;;;;;;;16.96;48.76;101566.63;4995565;28;19921;-77
2022/02/25 01:57:48;;;;;;;;;;;;;;;16.95;48.69;101563.19;4990628;28;19927;-75
2022/02/25 02:00:14;;;;;;;;;;;;;;;16.95;48.88;101565.78;4992390;28;19964;-75
2022/02/25 02:02:39;;;;;;;;;;;;;;;16.95;48.42;101559.72;4996172;28;20290;-75
2022/02/25 02:05:05;;;;;;;;;;;;;;;16.95;48.65;101557.13;4995732;28;20343;-73
2022/02/25 02:07:30;;;;;;;;;;;;;;;16.94;48.73;101556.25;5013739;28;20372;-75
2022/02/25 02:09:55;;;;;;;;;;;;;;;16.93;48.45;101557.09;5008844;28;20016;-76
2022/02/25 02:12:20;;;;;;;;;;;;;;;16.94;48.60;101552.75;4987870;28;19926;-75
2022/02/25 02:14:48;;;;;;;;;;;;;;;16.93;48.42;101551.91;4965187;28;19988;-76
2022/02/25 02:17:13;;;;;;;;;;;;;;;16.94;48.30;101550.16;4962397;28;19965;-76
2022/02/25 02:19:38;;;;;;;;;;;;;;;16.93;48.53;101553.63;4995963;28;19917;-75
2022/02/25 02:22:04;;;;;;;;;;;;;;;16.92;48.43;101552.78;4979024;28;20284;-75
2022/02/25 02:24:29;;;;;;;;;;;;;;;16.92;48.58;101542.38;4988537;28;19985;-74
2022/02/25 02:26:56;;;;;;;;;;;;;;;16.92;48.68;101544.09;5010385;28;19922;-74
2022/02/25 02:29:21;;;;;;;;;;;;;;;16.92;48.48;101562.28;4980139;28;19924;-75
2022/02/25 02:31:47;;;;;;;;;;;;;;;16.92;48.31;101555.38;5013631;28;19921;-74
2022/02/25 02:34:13;;;;;;;;;;;;;;;16.91;48.32;101548.41;4999420;28;19920;-75
2022/02/25 02:36:39;;;;;;;;;;;;;;;16.91;48.60;101550.16;5016116;28;19976;-74
2022/02/25 02:39:05;;;;;;;;;;;;;;;16.91;48.27;101545.81;4998190;28;20372;-74
2022/02/25 02:41:30;;;;;;;;;;;;;;;16.91;48.50;101558.81;5016774;28;20023;-75
2022/02/25 02:43:56;;;;;;;;;;;;;;;16.91;48.43;101553.63;4974641;28;20020;-76
2022/02/25 02:46:21;;;;;;;;;;;;;;;16.91;47.97;101560.56;5007843;28;19921;-75
2022/02/25 02:48:46;;;;;;;;;;;;;;;16.90;48.26;101554.50;4979668;28;20025;-76
2022/02/25 02:51:12;;;;;;;;;;;;;;;16.90;48.25;101549.31;4988989;28;19980;-76
2022/02/25 02:53:38;;;;;;;;;;;;;;;16.89;48.33;101544.94;4991545;28;19971;-75
2022/02/25 02:56:04;;;;;;;;;;;;;;;16.89;48.17;101538.88;4996383;28;20332;-75
2022/02/25 02:58:29;;;;;;;;;;;;;;;16.91;48.20;101542.38;4979409;28;20008;-74
2022/02/25 03:00:55;;;;;;;;;;;;;;;16.88;48.25;101530.22;4979310;28;19918;-75
2022/02/25 03:03:20;;;;;;;;;;;;;;;16.89;48.31;101533.69;4982699;28;19921;-75
2022/02/25 03:05:46;;;;;;;;;;;;;;;16.89;48.37;101536.28;4998568;28;19913;-74
2022/02/25 03:08:11;;;;;;;;;;;;;;;16.88;48.14;101539.75;4998176;28;19933;-75
2022/02/25 03:10:37;;;;;;;;;;;;;;;16.88;48.19;101531.97;5015329;28;19937;-74
2022/02/25 03:13:03;;;;;;;;;;;;;;;16.87;48.36;101541.47;4997452;28;20016;-74
2022/02/25 03:15:29;;;;;;;;;;;;;;;16.87;47.93;101551.88;4997658;28;19949;-75
2022/02/25 03:17:54;;;;;;;;;;;;;;;16.87;48.13;101551.88;5009654;28;19918;-74
2022/02/25 03:20:22;;;;;;;;;;;;;;;16.86;48.20;101538.00;5014885;28;19920;-79
2022/02/25 03:22:47;;;;;;;;;;;;;;;16.88;47.88;101550.16;4997254;28;19928;-78
2022/02/25 03:25:13;;;;;;;;;;;;;;;16.86;48.02;101550.13;5015311;28;19921;-78
2022/02/25 03:27:39;;;;;;;;;;;;;;;16.86;47.94;101552.75;4987972;28;19922;-77
2022/02/25 03:30:04;;;;;;;;;;;;;;;16.86;47.93;101552.75;4995668;28;19953;-77
2022/02/25 03:32:30;;;;;;;;;;;;;;;16.86;47.96;101556.19;4978022;28;19918;-78
2022/02/25 03:34:55;;;;;;;;;;;;;;;16.86;48.18;101560.53;4997309;28;20283;-77
2022/02/25 03:37:20;;;;;;;;;;;;;;;16.85;48.11;101546.69;4995626;28;20016;-77
2022/02/25 03:39:46;;;;;;;;;;;;;;;16.84;47.83;101552.72;4996915;28;20008;-78
2022/02/25 03:42:11;;;;;;;;;;;;;;;16.85;47.83;101562.28;4996948;28;19924;-78
2022/02/25 03:44:37;;;;;;;;;;;;;;;16.85;48.00;101557.09;4996454;28;20012;-78
2022/02/25 03:47:02;;;;;;;;;;;;;;;16.84;47.88;101563.13;4996609;28;20012;-77
2022/02/25 03:49:28;;;;;;;;;;;;;;;16.85;47.86;101553.59;4997304;28;20307;-78
2022/02/25 03:51:53;;;;;;;;;;;;;;;16.85;48.09;101558.78;4982145;28;19922;-80
2022/02/25 03:54:18;;;;;;;;;;;;;;;16.84;47.83;101564.84;4990258;28;19922;-79
2022/02/25 03:56:44;;;;;;;;;;;;;;;16.85;47.74;101563.97;4996067;28;19964;-79
2022/02/25 03:59:09;;;;;;;;;;;;;;;16.84;47.83;101557.06;5014778;28;19925;-79
2022/02/25 04:01:34;;;;;;;;;;;;;;;16.83;48.02;101561.41;4997106;28;19914;-77
2022/02/25 04:03:59;;;;;;;;;;;;;;;16.84;48.22;101559.66;4995041;28;19922;-78
2022/02/25 04:06:25;;;;;;;;;;;;;;;16.83;48.27;101552.72;4999508;28;20326;-78
2022/02/25 04:08:51;;;;;;;;;;;;;;;16.83;47.81;101544.91;4886195;28;3249036;-78
2022/02/25 04:11:16;;;;;;;;;;;;;;;16.83;48.17;101553.59;4997558;28;19924;-79
2022/02/25 04:13:42;;;;;;;;;;;;;;;16.83;47.96;101555.31;4997455;28;20295;-79
2022/02/25 04:16:08;;;;;;;;;;;;;;;16.84;47.86;101554.47;5015283;28;20021;-79
2022/02/25 04:18:33;;;;;;;;;;;;;;;16.82;47.73;101556.19;4997190;28;19928;-79
2022/02/25 04:20:58;;;;;;;;;;;;;;;16.83;47.68;101555.31;5015277;28;19914;-81
2022/02/25 04:23:24;;;;;;;;;;;;;;;16.82;47.67;101559.66;5003452;28;19922;-77
2022/02/25 04:25:49;;;;;;;;;;;;;;;16.82;47.63;101551.84;4980236;28;20056;-77
2022/02/25 04:28:15;;;;;;;;;;;;;;;16.82;48.05;101556.19;5005111;28;19956;-77
2022/02/25 04:30:40;;;;;;;;;;;;;;;16.81;47.69;101560.53;4978320;28;19949;-81
2022/02/25 04:33:06;;;;;;;;;;;;;;;16.82;47.70;101554.44;5005613;28;19917;-77
2022/02/25 04:35:31;;;;;;;;;;;;;;;16.82;47.75;101548.38;5014808;28;20375;-78
2022/02/25 04:37:57;;;;;;;;;;;;;;;16.82;47.81;101558.78;5014671;28;19924;-78
2022/02/25 04:40:22;;;;;;;;;;;;;;;16.82;47.61;101550.97;5014735;28;20017;-77
2022/02/25 04:42:47;;;;;;;;;;;;;;;16.82;47.75;101551.84;4988411;28;19969;-77
2022/02/25 04:45:13;;;;;;;;;;;;;;;16.81;47.77;101555.31;5014575;28;20326;-76
2022/02/25 04:47:39;;;;;;;;;;;;;;;16.81;47.95;101560.53;5013338;28;20364;-77
2022/02/25 04:50:05;;;;;;;;;;;;;;;16.82;47.92;101561.38;4986545;28;19968;-78
2022/02/25 04:52:30;;;;;;;;;;;;;;;16.80;47.90;101556.16;4983632;28;19925;-78
2022/02/25 04:54:55;;;;;;;;;;;;;;;16.80;47.76;101556.16;4980304;28;19921;-77
2022/02/25 04:57:20;;;;;;;;;;;;;;;16.80;47.64;101548.38;5010410;28;19929;-78
2022/02/25 04:59:46;;;;;;;;;;;;;;;16.80;47.71;101555.31;5009385;28;19918;-79
2022/02/25 05:02:11;;;;;;;;;;;;;;;16.80;47.60;101558.75;4997287;28;19925;-77
2022/02/25 05:04:36;;;;;;;;;;;;;;;16.79;47.61;101561.34;4999946;28;19933;-78
2022/02/25 05:07:03;;;;;;;;;;;;;;;16.79;47.78;101558.75;4995150;28;19917;-80
2022/02/25 05:09:28;;;;;;;;;;;;;;;16.79;47.86;101559.59;4982144;28;19926;-79
2022/02/25 05:11:53;;;;;;;;;;;;;;;16.78;47.98;101573.44;4976533;28;19983;-78
2022/02/25 05:22:32;;;;;;;;;;;;;;;16.78;47.62;101583.84;4995442;28;19929;-78
2022/02/25 05:24:57;;;;;;;;;;;;;;;16.77;47.56;101579.53;5004298;28;19949;-77
2022/02/25 05:27:22;;;;;;;;;;;;;;;16.77;47.90;101589.91;4994600;28;19929;-79
2022/02/25 05:29:47;;;;;;;;;;;;;;;16.77;47.78;101584.72;4999180;28;19922;-78
2022/02/25 05:32:13;;;;;;;;;;;;;;;16.78;47.64;101585.59;5022430;28;19925;-76
2022/02/25 05:34:38;;;;;;;;;;;;;;;16.77;47.55;101586.47;5008620;28;20402;-77
2022/02/25 05:37:03;;;;;;;;;;;;;;;16.77;47.85;101583.88;5026177;28;19918;-77
2022/02/25 05:39:28;;;;;;;;;;;;;;;16.76;47.70;101588.16;5031316;28;19956;-78
2022/02/25 05:41:54;;;;;;;;;;;;;;;16.77;47.48;101596.84;5025952;28;19925;-78
2022/02/25 05:44:19;;;;;;;;;;;;;;;16.77;47.69;101595.13;5027465;28;19925;-79
2022/02/25 05:46:44;;;;;;;;;;;;;;;16.77;47.67;101602.91;5032599;28;19968;-82
2022/02/25 05:49:09;;;;;;;;;;;;;;;16.78;47.59;101608.97;4999529;28;19921;-79
2022/02/25 05:51:35;;;;;;;;;;;;;;;16.79;47.73;101610.72;5002824;28;19929;-81
2022/02/25 05:54:00;;;;;;;;;;;;;;;16.79;47.78;101609.00;5015207;28;19922;-81
2022/02/25 05:56:26;;;;;;;;;;;;;;;16.78;47.54;101615.03;5007091;28;19922;-82
2022/02/25 05:58:52;;;;;;;;;;;;;;;16.79;47.70;101621.13;5017700;28;19922;-80
2022/02/25 06:01:17;;;;;;;;;;;;;;;16.79;47.59;101626.31;5020124;28;19923;-80
2022/02/25 06:03:42;;;;;;;;;;;;;;;16.78;47.82;101633.22;5010842;28;19930;-82
2022/02/25 06:06:07;;;;;;;;;;;;;;;16.76;47.88;101642.75;5038702;28;19924;-82
2022/02/25 06:08:34;;;;;;;;;;;;;;;16.77;48.06;101651.44;5028500;28;20427;-84
2022/02/25 06:10:59;;;;;;;;;;;;;;;16.77;48.17;101656.63;5017053;28;19925;-86
2022/02/25 06:13:24;;;;;;;;;;;;;;;16.78;48.24;101658.38;4997126;28;19975;-82
2022/02/25 06:15:50;;;;;;;;;;;;;;;16.79;48.48;101670.53;5000845;28;20360;-82
2022/02/25 06:18:17;;;;;;;;;;;;;;;16.79;48.14;101676.56;4984404;28;19956;-79
2022/02/25 06:20:42;;;;;;;;;;;;;;;16.81;48.24;101681.81;4981673;28;19918;-82
2022/02/25 06:23:08;;;;;;;;;;;;;;;16.81;48.33;101676.59;5004123;28;19967;-82
2022/02/25 06:25:34;;;;;;;;;;;;;;;16.82;48.21;101683.56;4994558;28;19933;-84
2022/02/25 06:27:59;;;;;;;;;;;;;;;16.82;48.19;101681.81;4998778;28;19941;-84
2022/02/25 06:30:24;;;;;;;;;;;;;;;16.82;48.43;101683.56;4998297;28;19922;-82
2022/02/25 06:32:49;;;;;;;;;;;;;;;16.82;48.19;101681.81;4980846;28;20024;-79
2022/02/25 06:35:15;;;;;;;;;;;;;;;16.82;48.47;101681.81;4998046;28;19918;-77
2022/02/25 06:37:40;;;;;;;;;;;;;;;16.82;48.16;101686.16;4980601;28;19918;-76
2022/02/25 06:40:06;;;;;;;;;;;;;;;16.80;48.41;101690.47;5010319;28;19917;-80
2022/02/25 06:42:31;;;;;;;;;;;;;;;16.78;48.24;101710.34;4999175;28;19914;-78
2022/02/25 06:44:56;;;;;;;;;;;;;;;16.76;48.25;101697.34;5014804;28;19972;-78
2022/02/25 06:47:22;;;;;;;;;;;;;;;16.81;48.21;101705.19;4995497;28;19925;-78
2022/02/25 06:49:47;;;;;;;;;;;;;;;16.89;47.74;101715.66;4994479;28;20406;-78
2022/02/25 06:52:12;;;;;;;;;;;;;;;16.90;47.93;101720.88;4982315;28;19921;-82
2022/02/25 06:54:37;;;;;;;;;;;;;;;16.92;47.85;101726.97;4999655;28;19928;-82
2022/02/25 06:57:03;;;;;;;;;;;;;;;16.94;48.03;101732.16;4988604;28;19972;-80
2022/02/25 06:59:28;;;;;;;;;;;;;;;16.95;48.20;101726.13;4999807;28;19921;-83
2022/02/25 07:01:53;;;;;;;;;;;;;;;16.95;48.43;101734.78;4999497;28;20021;-82
2022/02/25 07:04:19;;;;;;;;;;;;;;;16.96;48.27;101740.84;4999261;28;19922;-80
2022/02/25 07:06:44;;;;;;;;;;;;;;;16.97;48.48;101740.00;4998664;28;19918;-79
2022/02/25 07:09:15;;;;;;;;;;;;;;;16.97;48.21;101751.25;5016489;28;19925;-79
2022/02/25 07:11:40;;;;;;;;;;;;;;;16.98;48.30;101750.38;4998849;28;19920;-81
2022/02/25 07:14:05;;;;;;;;;;;;;;;16.99;48.32;101759.09;5016479;28;20004;-80
2022/02/25 07:16:30;;;;;;;;;;;;;;;16.99;48.58;101749.53;4982640;28;19917;-79
2022/02/25 07:18:56;;;;;;;;;;;;;;;17.00;48.61;101761.66;4982668;28;20398;-82
2022/02/25 07:21:21;;;;;;;;;;;;;;;17.01;48.66;101767.78;4998908;28;19918;-81
2022/02/25 07:23:46;;;;;;;;;;;;;;;17.03;48.59;101781.66;4998568;28;19924;-82
2022/02/25 07:26:11;;;;;;;;;;;;;;;17.06;48.50;101790.34;4998657;28;20439;-80
2022/02/25 07:28:37;;;;;;;;;;;;;;;17.13;48.28;101778.25;4982508;28;20012;-80
2022/02/25 07:31:02;;;;;;;;;;;;;;;17.15;48.45;101781.72;5016800;28;20383;-78
2022/02/25 07:33:27;;;;;;;;;;;;;;;17.16;48.33;101783.47;4998800;28;20000;-78
2022/02/25 07:35:53;;;;;;;;;;;;;;;17.18;48.42;101780.88;5016260;28;19917;-78
2022/02/25 07:38:19;;;;;;;;;;;;;;;17.19;48.35;101782.63;4998629;28;19925;-77
2022/02/25 07:40:44;;;;;;;;;;;;;;;17.20;48.43;101792.16;5016155;28;19957;-81
2022/02/25 07:43:12;;;;;;;;;;;;;;;17.22;48.05;101800.84;4982169;28;20004;-79
2022/02/25 07:45:37;;;;;;;;;;;;;;;17.24;48.19;101793.94;4998388;28;20077;-77
2022/02/25 07:48:03;;;;;;;;;;;;;;;17.26;48.34;101798.28;4982015;28;20037;-76
2022/02/25 07:50:28;;;;;;;;;;;;;;;17.28;48.09;101808.69;5015805;28;19976;-77
2022/02/25 07:52:54;;;;;;;;;;;;;;;17.32;48.41;101810.47;4982182;28;19929;-77
2022/02/25 07:55:19;;;;;;;;;;;;;;;17.36;47.96;101808.78;5015884;28;19920;-77
2022/02/25 07:57:45;;;;;;;;;;;;;;;17.34;48.08;101818.28;5015475;28;19913;-78
2022/02/25 08:00:12;;;;;;;;;;;;;;;17.33;48.07;101807.00;4998560;28;20379;-77
2022/02/25 08:02:38;;;;;;;;;;;;;;;17.35;48.15;101820.88;4998426;28;19914;-76
2022/02/25 08:05:04;;;;;;;;;;;;;;;17.38;48.11;101825.25;4998435;28;19924;-77
2022/02/25 08:07:29;;;;;;;;;;;;;;;17.34;48.19;101834.78;4997831;28;19936;-76
2022/02/25 08:09:54;;;;;;;;;;;;;;;17.28;48.18;101835.59;4981862;28;19917;-76
2022/02/25 08:12:19;;;;;;;;;;;;;;;17.27;48.24;101843.41;4981831;28;20279;-77
2022/02/25 08:14:45;;;;;;;;;;;;;;;17.25;48.33;101858.97;4997923;28;19956;-76
2022/02/25 08:17:10;;;;;;;;;;;;;;;17.23;48.36;101863.31;4981730;28;19917;-76
2022/02/25 08:19:35;;;;;;;;;;;;;;;17.25;48.39;101871.13;5015458;28;19930;-78
2022/02/25 08:22:01;;;;;;;;;;;;;;;17.27;48.34;101867.66;4981818;28;19924;-84
2022/02/25 08:24:26;;;;;;;;;;;;;;;17.30;48.29;101868.56;4981639;28;19971;-78
2022/02/25 08:26:51;;;;;;;;;;;;;;;17.29;48.26;101872.91;4981618;28;19965;-78
2022/02/25 08:29:16;;;;;;;;;;;;;;;17.27;48.22;101878.09;4981053;28;19945;-79
2022/02/25 08:31:43;;;;;;;;;;;;;;;17.26;48.51;101885.84;4997634;28;19925;-79
2022/02/25 08:34:09;;;;;;;;;;;;;;;17.25;48.55;101886.72;4981665;28;19924;-78
2022/02/25 08:36:34;;;;;;;;;;;;;;;17.25;48.53;101894.53;4997817;28;19917;-80
2022/02/25 08:39:01;;;;;;;;;;;;;;;17.25;48.50;101908.41;4997594;28;19913;-78
2022/02/25 08:41:26;;;;;;;;;;;;;;;17.26;48.73;101907.53;4997610;28;19960;-83
2022/02/25 08:43:52;;;;;;;;;;;;;;;17.27;48.50;101913.63;4997293;28;19964;-85
2022/02/25 08:46:17;;;;;;;;;;;;;;;17.26;48.79;101915.34;4998077;28;19925;-81
2022/02/25 08:48:42;;;;;;;;;;;;;;;17.26;48.81;101923.16;5014952;28;19949;-76
2022/02/25 08:51:07;;;;;;;;;;;;;;;17.25;48.65;101929.22;4981071;28;19918;-78
2022/02/25 08:53:33;;;;;;;;;;;;;;;17.27;48.56;101940.50;5014956;28;19972;-82
2022/02/25 08:55:58;;;;;;;;;;;;;;;17.30;48.69;101936.19;4997327;28;19941;-82
2022/02/25 08:58:23;;;;;;;;;;;;;;;17.29;48.71;101930.13;4997153;28;19921;-80
2022/02/25 09:00:49;;;;;;;;;;;;;;;17.28;48.90;101941.38;4997633;28;19920;-83
2022/02/25 09:03:14;;;;;;;;;;;;;;;17.32;48.62;101950.97;4997421;28;20379;-82
2022/02/25 09:05:40;;;;;;;;;;;;;;;17.31;48.64;101948.34;4997532;28;19924;-78
2022/02/25 09:08:05;;;;;;;;;;;;;;;17.31;48.76;101949.22;5014451;28;19921;-81
2022/02/25 09:10:30;;;;;;;;;;;;;;;17.31;48.81;101956.13;4980863;28;20076;-79
2022/02/25 09:12:56;;;;;;;;;;;;;;;17.32;48.69;101952.69;4997035;28;20502;-81
2022/02/25 09:15:25;;;;;;;;;;;;;;;17.30;48.90;101960.47;4981026;28;20000;-80
2022/02/25 09:17:52;;;;;;;;;;;;;;;17.31;48.77;101970.03;4996935;28;19921;-79
2022/02/25 09:20:17;;;;;;;;;;;;;;;17.32;48.89;101965.69;4981105;28;19972;-81
2022/02/25 09:22:42;;;;;;;;;;;;;;;17.34;48.50;101975.25;4996775;28;19917;-79
2022/02/25 09:25:08;;;;;;;;;;;;;;;17.37;48.86;101985.69;4980634;28;19968;-78
2022/02/25 09:27:33;;;;;;;;;;;;;;;17.37;48.64;101985.69;4980654;28;19972;-82
2022/02/25 09:29:58;;;;;;;;;;;;;;;17.38;48.64;101981.38;4980975;28;19972;-81
2022/02/25 09:32:25;;;;;;;;;;;;;;;17.40;48.94;101977.06;4997247;28;19921;-79
2022/02/25 09:34:50;;;;;;;;;;;;;;;17.46;48.51;101988.41;5014448;28;19976;-81
2022/02/25 09:37:15;;;;;;;;;;;;;;;17.48;48.52;101981.47;5014423;28;20363;-80
2022/02/25 09:39:40;;;;;;;;;;;;;;;17.52;48.30;101984.09;4996492;28;19947;-81
2022/02/25 09:42:07;;;;;;;;;;;;;;;17.52;48.43;101999.72;4982370;28;19925;-80
2022/02/25 09:44:34;;;;;;;;;;;;;;;17.49;48.39;102010.97;5020670;28;19917;-83
2022/02/25 09:46:59;;;;;;;;;;;;;;;17.48;48.65;102010.09;5000785;28;19913;-83
2022/02/25 09:49:25;;;;;;;;;;;;;;;17.48;48.63;102020.53;5000477;28;19920;-77
2022/02/25 09:51:52;;;;;;;;;;;;;;;17.46;48.92;102030.03;4984170;28;20012;-77
2022/02/25 09:54:17;;;;;;;;;;;;;;;17.44;48.87;102023.03;4984635;28;20331;-80
2022/02/25 09:56:46;;;;;;;;;;;;;;;17.42;48.79;102030.88;5018132;28;19922;-80
2022/02/25 09:59:12;;;;;;;;;;;;;;;17.42;49.09;102029.97;5018306;28;19920;-80
2022/02/25 10:01:37;;;;;;;;;;;;;;;17.41;49.13;102041.25;5001739;28;19914;-81
2022/02/25 10:04:10;;;;;;;;;;;;;;;17.43;48.94;102042.13;5000586;28;19917;-82
2022/02/25 10:06:35;;;;;;;;;;;;;;;17.44;49.09;102049.97;5000394;28;19960;-81
2022/02/25 10:09:10;;;;;;;;;;;;;;;17.50;48.80;102059.56;5000817;28;19926;-82
2022/02/25 10:11:56;;;;;;;;;;;;;;;17.53;48.93;102061.31;5000785;28;19927;-82
2022/02/25 10:14:28;;;;;;;;;;;;;;;17.52;48.75;102065.66;5017946;28;20016;-82
2022/02/25 10:17:09;;;;;;;;;;;;;;;17.51;48.90;102076.94;5000234;28;20435;-82
2022/02/25 10:19:34;;;;;;;;;;;;;;;17.59;48.79;102083.06;5000370;28;19913;-81
2022/02/25 10:22:20;;;;;;;;;;;;;;;17.61;48.45;102091.75;4999814;28;20344;-81
2022/02/25 10:24:48;;;;;;;;;;;;;;;17.60;48.59;102102.19;5017140;28;19964;-81
2022/02/25 10:27:17;;;;;;;;;;;;;;;17.57;48.85;102099.53;4999785;28;19913;-80
2022/02/25 10:29:50;;;;;;;;;;;;;;;17.55;48.86;102109.03;5017172;28;20384;-79
2022/02/25 10:32:17;;;;;;;;;;;;;;;17.52;48.95;102102.09;4999643;28;19922;-80
2022/02/25 10:34:42;;;;;;;;;;;;;;;17.53;48.79;102118.56;4999735;28;19942;-79
2022/02/25 10:37:08;;;;;;;;;;;;;;;17.53;48.88;102121.16;4983473;28;19917;-82
2022/02/25 10:39:34;;;;;;;;;;;;;;;17.52;48.83;102127.25;4983144;28;19947;-79
2022/02/25 10:42:06;;;;;;;;;;;;;;;17.51;48.79;102123.78;4983356;28;19949;-79
2022/02/25 10:44:35;;;;;;;;;;;;;;;17.52;48.99;102140.25;5016863;28;19960;-81
2022/02/25 10:47:30;;;;;;;;;;;;;;;17.53;48.80;102148.09;4999262;28;20412;-79
2022/02/25 10:50:01;;;;;;;;;;;;;;;17.52;48.83;102153.28;4995943;28;20367;-80
2022/02/25 10:52:28;;;;;;;;;;;;;;;17.52;49.02;102163.69;4998917;28;20287;-81
2022/02/25 10:54:54;;;;;;;;;;;;;;;17.51;48.92;102156.72;5016933;28;19937;-80
2022/02/25 10:57:19;;;;;;;;;;;;;;;17.53;48.79;102173.22;5016764;28;19922;-81
2022/02/25 10:59:46;;;;;;;;;;;;;;;17.57;48.91;102175.00;5016781;28;20056;-82
2022/02/25 11:02:30;;;;;;;;;;;;;;;17.62;48.53;102173.34;4999080;28;19973;-79
2022/02/25 11:04:59;;;;;;;;;;;;;;;17.64;48.60;102180.31;4999080;28;19917;-81
2022/02/25 11:07:28;;;;;;;;;;;;;;;17.65;48.38;102191.59;5016708;28;19966;-79
2022/02/25 11:09:54;;;;;;;;;;;;;;;17.67;48.48;102188.16;4999033;28;19928;-79
2022/02/25 11:12:19;;;;;;;;;;;;;;;17.69;48.46;102196.00;4999420;28;20008;-78
2022/02/25 11:14:45;;;;;;;;;;;;;;;17.70;48.39;102197.72;4999188;28;20356;-79
2022/02/25 11:17:10;;;;;;;;;;;;;;;17.70;48.64;102200.31;4982618;28;20032;-76
2022/02/25 11:19:36;;;;;;;;;;;;;;;17.71;48.66;102203.81;4998719;28;19939;-76
2022/02/25 11:22:03;;;;;;;;;;;;;;;17.69;48.52;102219.41;4999088;28;19918;-76
2022/02/25 11:24:32;;;;;;;;;;;;;;;17.70;48.66;102228.97;5016302;28;19921;-77
2022/02/25 11:26:57;;;;;;;;;;;;;;;17.71;48.59;102229.84;4998988;28;19924;-76
2022/02/25 11:29:23;;;;;;;;;;;;;;;17.72;48.69;102229.00;4998515;28;19932;-76
2022/02/25 11:31:51;;;;;;;;;;;;;;;17.74;48.50;102229.88;5016288;28;19936;-76
2022/02/25 11:34:18;;;;;;;;;;;;;;;17.80;48.41;102233.44;4998757;28;19913;-79
2022/02/25 11:36:48;;;;;;;;;;;;;;;17.85;48.32;102233.50;4998769;28;20378;-80
2022/02/25 11:39:28;;;;;;;;;;;;;;;17.84;48.41;102230.03;4998596;28;19924;-76
2022/02/25 11:41:58;;;;;;;;;;;;;;;17.90;48.47;102234.47;4998524;28;19920;-76
2022/02/25 11:44:24;;;;;;;;;;;;;;;17.88;48.52;102244.00;4998499;28;20025;-75
2022/02/25 11:46:50;;;;;;;;;;;;;;;17.86;48.48;102250.91;4998425;28;19991;-77
2022/02/25 11:49:19;;;;;;;;;;;;;;;17.85;48.60;102255.22;4999183;28;19913;-76
2022/02/25 11:51:50;;;;;;;;;;;;;;;17.87;48.49;102258.72;4998508;28;20295;-77
2022/02/25 11:57:08;;;;;;;;;;;;;;;17.96;48.20;102273.56;5016103;28;19964;-76
2022/02/25 11:59:33;;;;;;;;;;;;;;;17.97;48.32;102277.94;4981593;28;19917;-76
2022/02/25 12:02:05;;;;;;;;;;;;;;;17.96;48.31;102277.91;5015652;28;20287;-78
2022/02/25 12:04:36;;;;;;;;;;;;;;;17.96;48.32;102285.72;5014648;28;19917;-78
2022/02/25 12:07:10;;;;;;;;;;;;;;;17.93;48.26;102289.19;5015618;28;20306;-76
2022/02/25 12:09:43;;;;;;;;;;;;;;;17.94;48.37;102309.16;4983542;28;20327;-76
2022/02/25 12:12:24;;;;;;;;;;;;;;;17.92;48.10;102300.47;4978674;28;19918;-76
2022/02/25 12:15:08;;;;;;;;;;;;;;;17.91;48.26;102303.03;4978438;28;19962;-76
2022/02/25 12:17:42;;;;;;;;;;;;;;;17.87;48.34;102310.78;4978711;28;20287;-78
2022/02/25 12:20:27;;;;;;;;;;;;;;;17.84;48.38;102315.97;4995823;28;20008;-77
2022/02/25 12:23:02;;;;;;;;;;;;;;;17.84;48.54;102317.72;4995812;28;19968;-76
2022/02/25 12:25:40;;;;;;;;;;;;;;;17.79;48.52;102304.59;4978185;28;19924;-77
2022/02/25 12:28:11;;;;;;;;;;;;;;;17.79;48.60;102320.22;4995634;28;19914;-76
2022/02/25 12:30:40;;;;;;;;;;;;;;;17.80;48.53;102334.13;4995757;28;19914;-78
2022/02/25 12:33:24;;;;;;;;;;;;;;;17.81;48.59;102339.34;4978097;28;19921;-80
2022/02/25 12:35:49;;;;;;;;;;;;;;;17.86;48.23;102336.84;4982677;28;19914;-76
2022/02/25 12:38:17;;;;;;;;;;;;;;;17.87;48.27;102333.38;4982399;28;20335;-76
2022/02/25 12:40:42;;;;;;;;;;;;;;;17.88;48.51;102332.53;4977886;28;19940;-76
2022/02/25 12:43:08;;;;;;;;;;;;;;;17.88;48.39;102345.56;4977848;28;19918;-78